createdAt,value
2022-11-26T00:02:25.276Z,67.30
2022-11-26T00:04:55.271Z,66.53
2022-11-26T00:07:26.615Z,65.00
2022-11-26T00:09:55.368Z,72.53
2022-11-26T00:12:25.176Z,70.60
2022-11-26T00:14:53.449Z,72.17
2022-11-26T00:17:23.164Z,70.93
2022-11-26T00:19:51.263Z,71.03
2022-11-26T00:22:25.265Z,67.30
2022-11-26T00:24:54.314Z,65.47
2022-11-26T00:27:25.004Z,79.97
2022-11-26T00:29:52.936Z,82.37
2022-11-26T00:32:24.696Z,78.17
2022-11-26T00:34:53.032Z,74.27
2022-11-26T00:37:25.041Z,79.97
2022-11-26T00:39:53.171Z,65.70
2022-11-26T00:42:21.319Z,80.20
2022-11-26T00:44:49.387Z,74.03
2022-11-26T00:47:17.318Z,72.27
2022-11-26T00:49:46.575Z,76.37
2022-11-26T00:52:26.691Z,80.27
2022-11-26T00:54:54.660Z,69.93
2022-11-26T00:57:22.575Z,65.50
2022-11-26T00:59:50.479Z,66.40
2022-11-26T01:02:18.464Z,66.57
2022-11-26T01:04:47.752Z,67.00
2022-11-26T01:07:15.773Z,72.03
2022-11-26T01:09:47.496Z,78.13
2022-11-26T01:12:15.888Z,68.63
2022-11-26T01:14:43.837Z,67.60
2022-11-26T01:17:13.193Z,79.80
2022-11-26T01:19:41.113Z,83.67
2022-11-26T01:22:20.908Z,70.37
2022-11-26T01:24:49.092Z,67.23
2022-11-26T01:27:21.671Z,67.50
2022-11-26T01:29:49.579Z,69.43
2022-11-26T01:32:17.488Z,64.87
2022-11-26T01:34:45.416Z,64.43
2022-11-26T01:37:15.245Z,63.70
2022-11-26T01:39:43.187Z,83.70
2022-11-26T01:42:23.842Z,72.53
2022-11-26T01:44:51.743Z,92.27
2022-11-26T01:47:23.072Z,76.27
2022-11-26T01:50:34.136Z,78.87
2022-11-26T01:53:05.941Z,105.73
2022-11-26T01:55:37.784Z,213.57
2022-11-26T01:58:08.505Z,81.43
2022-11-26T02:00:36.511Z,88.37
2022-11-26T02:03:05.828Z,92.63
2022-11-26T02:05:40.947Z,125.10
2022-11-26T02:08:11.696Z,92.57
2022-11-26T02:10:39.616Z,111.53
2022-11-26T02:13:07.607Z,96.67
2022-11-26T02:15:46.206Z,101.67
2022-11-26T02:18:14.319Z,124.37
2022-11-26T02:20:55.187Z,117.83
2022-11-26T02:23:56.262Z,93.97
2022-11-26T02:26:46.003Z,75.13
2022-11-26T02:29:24.702Z,96.70
2022-11-26T02:32:01.667Z,115.37
2022-11-26T02:34:39.750Z,103.67
2022-11-26T02:37:12.004Z,152.90
2022-11-26T02:39:40.007Z,138.60
2022-11-26T02:42:26.126Z,100.10
2022-11-26T02:44:57.766Z,101.47
2022-11-26T02:47:28.590Z,137.80
2022-11-26T02:49:58.535Z,99.23
2022-11-26T02:52:28.439Z,172.87
2022-11-26T02:54:57.846Z,105.83
2022-11-26T02:57:30.906Z,158.27
2022-11-26T02:59:59.109Z,132.23
2022-11-26T03:02:33.889Z,172.73
2022-11-26T03:05:04.252Z,153.60
2022-11-26T03:07:33.634Z,108.00
2022-11-26T03:10:03.030Z,106.50
2022-11-26T03:12:31.254Z,90.50
2022-11-26T03:14:59.802Z,86.87
2022-11-26T03:17:29.034Z,121.87
2022-11-26T03:19:56.910Z,98.40
2022-11-26T03:22:25.065Z,77.03
2022-11-26T03:24:53.049Z,86.63
2022-11-26T03:27:20.933Z,94.97
2022-11-26T03:29:48.838Z,79.10
2022-11-26T03:32:16.789Z,105.37
2022-11-26T03:34:46.073Z,93.10
2022-11-26T03:37:14.358Z,112.50
2022-11-26T03:39:42.770Z,154.23
2022-11-26T03:42:10.736Z,125.73
2022-11-26T03:44:39.060Z,117.67
2022-11-26T03:47:07.170Z,112.07
2022-11-26T03:49:35.097Z,84.03
2022-11-26T03:52:04.598Z,94.03
2022-11-26T03:54:32.565Z,101.33
2022-11-26T03:57:00.493Z,123.27
2022-11-26T03:59:28.478Z,119.83
2022-11-26T04:01:56.449Z,118.40
2022-11-26T04:04:24.401Z,108.20
2022-11-26T04:06:52.310Z,123.80
2022-11-26T04:09:21.630Z,82.53
2022-11-26T04:11:49.595Z,66.60
2022-11-26T04:14:17.538Z,68.43
2022-11-26T04:16:45.521Z,84.60
2022-11-26T04:19:13.534Z,72.77
2022-11-26T04:21:41.442Z,102.53
2022-11-26T04:24:09.821Z,77.07
2022-11-26T04:26:39.070Z,110.80
2022-11-26T04:29:06.979Z,123.53
2022-11-26T04:31:34.996Z,95.47
2022-11-26T04:34:02.892Z,92.73
2022-11-26T04:36:30.802Z,64.17
2022-11-26T04:38:59.245Z,76.63
2022-11-26T04:41:27.206Z,79.20
2022-11-26T04:43:56.454Z,54.83
2022-11-26T04:46:24.345Z,50.20
2022-11-26T04:48:52.205Z,67.87
2022-11-26T04:51:20.073Z,64.33
2022-11-26T04:53:47.961Z,50.03
2022-11-26T04:56:15.880Z,43.57
2022-11-26T04:58:43.801Z,61.87
2022-11-26T05:01:13.087Z,62.53
2022-11-26T05:03:41.062Z,55.20
2022-11-26T05:06:10.776Z,57.70
2022-11-26T05:08:38.781Z,59.90
2022-11-26T05:11:07.399Z,46.90
2022-11-26T05:13:35.338Z,58.70
2022-11-26T05:16:03.221Z,54.73
2022-11-26T05:18:32.488Z,63.67
2022-11-26T05:21:00.521Z,69.57
2022-11-26T05:23:28.486Z,51.17
2022-11-26T05:25:56.384Z,59.23
2022-11-26T05:28:24.304Z,54.07
2022-11-26T05:30:58.505Z,55.07
2022-11-26T05:33:26.440Z,56.87
2022-11-26T05:35:55.817Z,68.43
2022-11-26T05:38:24.100Z,47.10
2022-11-26T05:40:52.044Z,60.87
2022-11-26T05:43:19.942Z,43.63
2022-11-26T05:45:47.863Z,58.90
2022-11-26T05:48:15.884Z,56.90
2022-11-26T05:50:43.796Z,73.00
2022-11-26T05:53:13.337Z,61.23
2022-11-26T05:55:41.234Z,61.73
2022-11-26T05:58:09.767Z,45.63
2022-11-26T06:00:37.695Z,57.50
2022-11-26T06:03:05.714Z,40.00
2022-11-26T06:05:33.708Z,44.37
2022-11-26T06:08:01.685Z,41.43
2022-11-26T06:10:30.958Z,45.23
2022-11-26T06:12:58.876Z,42.93
2022-11-26T06:15:26.762Z,39.17
2022-11-26T06:17:54.700Z,38.03
2022-11-26T06:20:22.611Z,41.07
2022-11-26T06:22:50.491Z,40.80
2022-11-26T06:25:18.585Z,38.37
2022-11-26T06:27:47.797Z,41.77
2022-11-26T06:30:15.984Z,63.20
2022-11-26T06:32:43.880Z,55.90
2022-11-26T06:35:11.955Z,86.27
2022-11-26T06:37:39.897Z,60.30
2022-11-26T06:40:09.351Z,90.20
2022-11-26T06:42:37.253Z,84.43
2022-11-26T06:45:07.367Z,55.00
2022-11-26T06:47:35.302Z,68.30
2022-11-26T06:50:07.809Z,83.47
2022-11-26T06:52:38.426Z,82.47
2022-11-26T06:55:07.001Z,82.70
2022-11-26T06:57:34.932Z,78.10
2022-11-26T07:00:02.926Z,162.10
2022-11-26T07:02:32.318Z,76.50
2022-11-26T07:05:00.283Z,70.47
2022-11-26T07:07:28.281Z,60.03
2022-11-26T07:09:56.446Z,53.63
2022-11-26T07:12:24.426Z,55.20
2022-11-26T07:14:52.318Z,69.87
2022-11-26T07:17:20.210Z,74.93
2022-11-26T07:19:50.509Z,66.53
2022-11-26T07:22:18.412Z,89.63
2022-11-26T07:24:46.306Z,87.30
2022-11-26T07:27:14.260Z,95.97
2022-11-26T07:29:42.193Z,83.87
2022-11-26T07:32:10.101Z,74.60
2022-11-26T07:34:38.431Z,72.90
2022-11-26T07:37:07.869Z,84.97
2022-11-26T07:39:35.765Z,80.23
2022-11-26T07:42:03.705Z,71.53
2022-11-26T07:44:31.645Z,102.10
2022-11-26T07:47:00.602Z,78.90
2022-11-26T07:49:28.569Z,76.53
2022-11-26T07:51:56.465Z,72.10
2022-11-26T07:54:25.774Z,56.17
2022-11-26T07:56:53.646Z,63.63
2022-11-26T07:59:22.588Z,64.13
2022-11-26T08:01:50.574Z,64.23
2022-11-26T08:04:18.550Z,59.93
2022-11-26T08:06:46.469Z,73.77
2022-11-26T08:09:14.401Z,74.07
2022-11-26T08:11:43.656Z,68.03
2022-11-26T08:14:13.444Z,63.37
2022-11-26T08:16:41.595Z,69.70
2022-11-26T08:19:13.216Z,80.30
2022-11-26T08:21:41.160Z,69.30
2022-11-26T08:24:13.645Z,71.03
2022-11-26T08:26:44.486Z,72.83
2022-11-26T08:29:12.671Z,71.40
2022-11-26T08:31:45.605Z,74.30
2022-11-26T08:34:15.833Z,74.60
2022-11-26T08:36:43.992Z,71.53
2022-11-26T08:39:14.588Z,73.17
2022-11-26T08:41:47.406Z,66.50
2022-11-26T08:44:18.515Z,70.23
2022-11-26T08:46:46.420Z,74.23
2022-11-26T08:49:15.302Z,73.80
2022-11-26T08:51:43.588Z,72.63
2022-11-26T08:54:11.783Z,63.93
2022-11-26T08:56:39.703Z,70.20
2022-11-26T08:59:08.963Z,63.17
2022-11-26T09:01:36.956Z,64.17
2022-11-26T09:04:05.813Z,59.03
2022-11-26T09:06:36.779Z,60.60
2022-11-26T09:09:17.277Z,52.80
2022-11-26T09:11:47.875Z,68.00
2022-11-26T09:14:19.407Z,63.87
2022-11-26T09:16:47.784Z,61.60
2022-11-26T09:19:16.648Z,54.93
2022-11-26T09:21:44.891Z,58.33
2022-11-26T09:24:12.878Z,49.67
2022-11-26T09:26:41.325Z,52.87
2022-11-26T09:29:09.261Z,56.47
2022-11-26T09:31:54.960Z,53.53
2022-11-26T09:34:26.388Z,61.23
2022-11-26T09:36:54.308Z,53.07
2022-11-26T09:39:22.271Z,56.40
2022-11-26T09:41:57.034Z,61.47
2022-11-26T09:44:34.268Z,55.00
2022-11-26T09:47:12.825Z,69.10
2022-11-26T09:49:50.529Z,67.83
2022-11-26T09:52:21.747Z,63.00
2022-11-26T09:54:52.693Z,53.13
2022-11-26T09:57:27.544Z,58.40
2022-11-26T09:59:56.949Z,59.43
2022-11-26T10:02:26.940Z,50.53
2022-11-26T10:04:55.180Z,51.97
2022-11-26T10:07:43.363Z,56.83
2022-11-26T10:10:17.683Z,53.03
2022-11-26T10:13:18.111Z,50.33
2022-11-26T10:15:53.312Z,56.50
2022-11-26T10:18:31.191Z,49.40
2022-11-26T10:21:32.349Z,53.73
2022-11-26T10:24:05.525Z,52.27
2022-11-26T10:26:36.460Z,56.23
2022-11-26T10:29:24.863Z,55.30
2022-11-26T10:31:58.123Z,64.20
2022-11-26T10:34:39.467Z,71.70
2022-11-26T10:37:07.787Z,63.13
2022-11-26T10:39:35.675Z,72.50
2022-11-26T10:42:05.691Z,71.80
2022-11-26T10:44:37.025Z,63.00
2022-11-26T10:47:24.205Z,70.47
2022-11-26T10:49:55.011Z,68.57
2022-11-26T10:52:26.532Z,67.77
2022-11-26T10:55:22.012Z,58.67
2022-11-26T10:57:53.292Z,55.37
2022-11-26T11:00:31.728Z,54.53
2022-11-26T11:03:00.523Z,73.40
2022-11-26T11:05:30.463Z,63.63
2022-11-26T11:07:58.426Z,62.20
2022-11-26T11:10:27.920Z,64.27
2022-11-26T11:13:12.281Z,72.13
2022-11-26T11:15:41.367Z,70.37
2022-11-26T11:18:19.527Z,65.43
2022-11-26T11:20:56.648Z,61.87
2022-11-26T11:23:45.734Z,62.47
2022-11-26T11:26:20.290Z,58.67
2022-11-26T11:28:50.615Z,62.83
2022-11-26T11:31:20.945Z,58.80
2022-11-26T11:33:49.914Z,55.20
2022-11-26T11:36:30.254Z,56.27
2022-11-26T11:38:59.826Z,54.00
2022-11-26T11:41:36.610Z,53.83
2022-11-26T11:44:14.575Z,50.13
2022-11-26T11:47:02.766Z,46.47
2022-11-26T11:49:44.699Z,45.50
2022-11-26T11:52:23.493Z,51.67
2022-11-26T11:55:00.392Z,53.73
2022-11-26T11:57:46.922Z,41.23
2022-11-26T12:00:19.634Z,40.87
2022-11-26T12:03:10.781Z,44.77
2022-11-26T12:05:47.467Z,46.77
2022-11-26T12:08:32.133Z,48.30
2022-11-26T12:11:11.852Z,44.27
2022-11-26T12:13:47.493Z,43.27
2022-11-26T12:16:17.970Z,43.90
2022-11-26T12:18:52.495Z,44.93
2022-11-26T12:21:27.758Z,39.97
2022-11-26T12:24:03.179Z,43.53
2022-11-26T12:26:34.611Z,44.70
2022-11-26T12:29:07.873Z,45.93
2022-11-26T12:31:39.034Z,46.60
2022-11-26T12:34:12.519Z,40.83
2022-11-26T12:36:46.493Z,42.17
2022-11-26T12:39:26.914Z,43.10
2022-11-26T12:41:58.940Z,52.50
2022-11-26T12:44:33.900Z,49.83
2022-11-26T12:47:10.962Z,38.80
2022-11-26T12:49:45.964Z,46.03
2022-11-26T12:52:25.260Z,46.33
2022-11-26T12:55:01.014Z,43.87
2022-11-26T12:57:33.949Z,42.80
2022-11-26T13:00:06.861Z,40.50
2022-11-26T13:02:37.587Z,35.20
2022-11-26T13:05:06.341Z,36.30
2022-11-26T13:07:49.918Z,37.47
2022-11-26T13:10:33.598Z,33.47
2022-11-26T13:13:11.924Z,31.27
2022-11-26T13:15:44.229Z,29.73
2022-11-26T13:18:29.582Z,30.83
2022-11-26T13:21:12.285Z,44.00
2022-11-26T13:23:54.905Z,42.83
2022-11-26T13:26:42.615Z,41.63
2022-11-26T13:29:32.632Z,39.97
2022-11-26T13:32:20.785Z,41.87
2022-11-26T13:35:14.483Z,38.50
2022-11-26T13:37:53.136Z,43.03
2022-11-26T13:40:53.520Z,53.03
2022-11-26T13:44:09.656Z,45.00
2022-11-26T13:46:41.410Z,43.37
2022-11-26T13:49:16.155Z,40.07
2022-11-26T13:51:48.694Z,39.47
2022-11-26T13:54:19.179Z,42.00
2022-11-26T13:56:48.391Z,38.27
2022-11-26T13:59:26.907Z,46.33
2022-11-26T14:01:56.831Z,43.23
2022-11-26T14:04:53.330Z,40.33
2022-11-26T14:07:21.857Z,44.70
2022-11-26T14:09:53.417Z,53.10
2022-11-26T14:12:22.420Z,48.57
2022-11-26T14:14:52.407Z,45.60
2022-11-26T14:17:25.298Z,51.90
2022-11-26T14:20:04.959Z,56.83
2022-11-26T14:22:34.821Z,62.90
2022-11-26T14:25:05.182Z,60.07
2022-11-26T14:27:34.863Z,66.70
2022-11-26T14:30:18.139Z,73.47
2022-11-26T14:32:52.630Z,93.57
2022-11-26T14:35:29.225Z,94.57
2022-11-26T14:38:01.717Z,79.40
2022-11-26T14:40:31.341Z,87.10
2022-11-26T14:43:14.256Z,99.87
2022-11-26T14:45:43.981Z,96.00
2022-11-26T14:48:22.473Z,83.13
2022-11-26T14:50:50.843Z,84.70
2022-11-26T14:53:20.766Z,75.00
2022-11-26T14:55:50.282Z,160.77
2022-11-26T14:58:23.437Z,129.93
2022-11-26T15:01:06.027Z,107.93
2022-11-26T15:03:34.267Z,108.70
2022-11-26T15:06:02.357Z,86.33
2022-11-26T15:08:30.241Z,87.57
2022-11-26T15:11:02.213Z,92.70
2022-11-26T15:13:33.747Z,78.70
2022-11-26T15:16:04.887Z,75.57
2022-11-26T15:18:36.171Z,92.13
2022-11-26T15:21:06.558Z,76.97
2022-11-26T15:23:38.094Z,78.23
2022-11-26T15:26:06.988Z,66.80
2022-11-26T15:28:40.907Z,66.33
2022-11-26T15:31:10.665Z,61.17
2022-11-26T15:33:40.177Z,65.97
2022-11-26T15:36:14.239Z,71.67
2022-11-26T15:39:03.014Z,77.17
2022-11-26T15:41:31.524Z,66.93
2022-11-26T15:44:01.211Z,69.13
2022-11-26T15:46:33.786Z,70.20
2022-11-26T15:49:04.725Z,76.53
2022-11-26T15:51:37.077Z,81.20
2022-11-26T15:54:07.178Z,73.40
2022-11-26T15:56:39.609Z,77.93
2022-11-26T15:59:14.988Z,89.37
2022-11-26T16:01:46.344Z,90.30
2022-11-26T16:04:46.851Z,85.00
2022-11-26T16:07:16.151Z,79.53
2022-11-26T16:09:44.870Z,80.37
2022-11-26T16:12:27.666Z,83.40
2022-11-26T16:15:11.134Z,77.63
2022-11-26T16:17:43.179Z,85.40
2022-11-26T16:20:18.310Z,80.80
2022-11-26T16:22:49.570Z,93.57
2022-11-26T16:25:22.774Z,78.53
2022-11-26T16:28:07.916Z,92.47
2022-11-26T16:30:36.111Z,100.00
2022-11-26T16:33:06.110Z,89.40
2022-11-26T16:35:49.404Z,83.30
2022-11-26T16:38:21.292Z,79.80
2022-11-26T16:40:49.466Z,75.60
2022-11-26T16:43:17.390Z,70.20
2022-11-26T16:45:45.649Z,78.43
2022-11-26T16:48:22.255Z,69.43
2022-11-26T16:50:50.214Z,72.80
2022-11-26T16:53:18.229Z,71.80
2022-11-26T16:55:46.521Z,66.40
2022-11-26T16:58:22.482Z,73.87
2022-11-26T17:00:51.164Z,68.60
2022-11-26T17:03:22.624Z,68.80
2022-11-26T17:05:53.337Z,74.00
2022-11-26T17:08:21.321Z,71.70
2022-11-26T17:10:50.881Z,66.23
2022-11-26T17:13:20.575Z,73.93
2022-11-26T17:15:49.294Z,76.17
2022-11-26T17:18:21.782Z,69.53
2022-11-26T17:20:50.241Z,67.70
2022-11-26T17:23:18.637Z,69.57
2022-11-26T17:25:47.986Z,71.83
2022-11-26T17:28:16.958Z,77.90
2022-11-26T17:30:45.881Z,70.03
2022-11-26T17:33:14.112Z,80.27
2022-11-26T17:35:43.502Z,70.23
2022-11-26T17:38:15.890Z,80.97
2022-11-26T17:40:44.881Z,89.90
2022-11-26T17:43:12.800Z,92.10
2022-11-26T17:45:41.142Z,92.77
2022-11-26T17:48:13.908Z,89.07
2022-11-26T17:50:43.250Z,84.40
2022-11-26T17:53:11.251Z,88.70
2022-11-26T17:55:39.618Z,82.10
2022-11-26T17:58:08.049Z,80.80
2022-11-26T18:00:35.960Z,83.97
2022-11-26T18:03:04.114Z,94.33
2022-11-26T18:05:32.121Z,87.47
2022-11-26T18:08:01.402Z,75.90
2022-11-26T18:10:29.385Z,91.40
2022-11-26T18:12:58.461Z,75.73
2022-11-26T18:15:27.965Z,73.30
2022-11-26T18:17:56.485Z,75.30
2022-11-26T18:20:26.837Z,80.90
2022-11-26T18:22:56.473Z,75.30
2022-11-26T18:25:26.376Z,76.83
2022-11-26T18:27:54.476Z,72.90
2022-11-26T18:30:22.486Z,75.77
2022-11-26T18:32:50.424Z,75.10
2022-11-26T18:35:18.573Z,74.93
2022-11-26T18:37:46.687Z,74.27
2022-11-26T18:40:16.884Z,84.73
2022-11-26T18:42:46.509Z,79.57
2022-11-26T18:45:16.537Z,78.50
2022-11-26T18:47:44.652Z,76.07
2022-11-26T18:50:13.775Z,68.13
2022-11-26T18:52:41.680Z,68.97
2022-11-26T18:55:10.037Z,73.70
2022-11-26T18:57:37.979Z,71.23
2022-11-26T19:00:10.952Z,72.33
2022-11-26T19:02:39.066Z,65.43
2022-11-26T19:05:08.179Z,64.80
2022-11-26T19:07:36.128Z,73.57
2022-11-26T19:10:04.145Z,62.67
2022-11-26T19:12:32.049Z,71.47
2022-11-26T19:14:59.956Z,58.93
2022-11-26T19:17:29.177Z,66.13
2022-11-26T19:19:57.064Z,66.53
2022-11-26T19:22:24.928Z,67.27
2022-11-26T19:24:52.808Z,71.73
2022-11-26T19:27:20.695Z,68.30
2022-11-26T19:29:48.615Z,88.57
2022-11-26T19:32:16.546Z,85.00
2022-11-26T19:34:45.784Z,76.03
2022-11-26T19:37:13.724Z,67.57
2022-11-26T19:39:41.910Z,70.33
2022-11-26T19:42:10.435Z,69.10
2022-11-26T19:44:38.387Z,70.13
2022-11-26T19:47:06.291Z,71.87
2022-11-26T19:49:34.742Z,66.93
2022-11-26T19:52:04.100Z,61.10
2022-11-26T19:54:32.018Z,62.70
2022-11-26T19:56:59.954Z,73.20
2022-11-26T19:59:27.855Z,73.17
2022-11-26T20:01:55.973Z,68.20
2022-11-26T20:04:27.464Z,63.00
2022-11-26T20:06:55.521Z,69.03
2022-11-26T20:09:24.770Z,71.83
2022-11-26T20:11:52.765Z,104.03
2022-11-26T20:14:20.665Z,115.57
2022-11-26T20:16:48.607Z,82.63
2022-11-26T20:19:17.992Z,107.53
2022-11-26T20:21:45.970Z,82.20
2022-11-26T20:24:17.197Z,78.80
2022-11-26T20:26:48.630Z,76.43
2022-11-26T20:29:17.549Z,75.87
2022-11-26T20:31:47.288Z,75.07
2022-11-26T20:34:15.628Z,71.03
2022-11-26T20:36:43.736Z,69.50
2022-11-26T20:39:14.652Z,71.27
2022-11-26T20:41:42.904Z,71.00
2022-11-26T20:44:13.417Z,81.00
2022-11-26T20:46:41.747Z,73.27
2022-11-26T20:49:10.901Z,70.97
2022-11-26T20:51:39.047Z,82.50
2022-11-26T20:54:07.110Z,72.33
2022-11-26T20:56:35.205Z,80.60
2022-11-26T20:59:03.391Z,76.07
2022-11-26T21:01:32.834Z,75.80
2022-11-26T21:04:00.820Z,74.90
2022-11-26T21:06:31.540Z,74.53
2022-11-26T21:09:01.870Z,74.30
2022-11-26T21:11:31.381Z,78.90
2022-11-26T21:14:01.462Z,75.63
2022-11-26T21:16:30.392Z,83.27
2022-11-26T21:19:00.448Z,107.67
2022-11-26T21:21:29.504Z,93.27
2022-11-26T21:23:58.354Z,82.27
2022-11-26T21:26:27.492Z,86.13
2022-11-26T21:28:57.265Z,79.27
2022-11-26T21:31:26.286Z,82.00
2022-11-26T21:34:00.748Z,72.80
2022-11-26T21:36:29.576Z,75.07
2022-11-26T21:38:57.445Z,67.97
2022-11-26T21:41:26.038Z,71.63
2022-11-26T21:43:53.951Z,87.67
2022-11-26T21:46:23.981Z,74.90
2022-11-26T21:48:53.221Z,69.13
2022-11-26T21:51:23.216Z,70.10
2022-11-26T21:53:51.664Z,65.47
2022-11-26T21:56:22.077Z,74.90
2022-11-26T21:58:50.587Z,75.87
2022-11-26T22:01:21.450Z,75.53
2022-11-26T22:03:51.808Z,65.40
2022-11-26T22:06:23.168Z,75.80
2022-11-26T22:08:51.521Z,70.90
2022-11-26T22:11:21.491Z,64.33
2022-11-26T22:13:49.868Z,64.57
2022-11-26T22:16:20.365Z,62.13
2022-11-26T22:18:50.399Z,67.10
2022-11-26T22:21:20.012Z,68.90
2022-11-26T22:23:49.615Z,72.07
2022-11-26T22:26:18.437Z,67.70
2022-11-26T22:28:46.568Z,61.43
2022-11-26T22:31:18.016Z,57.83
2022-11-26T22:33:46.283Z,63.87
2022-11-26T22:36:14.336Z,67.07
2022-11-26T22:38:43.511Z,68.00
2022-11-26T22:41:14.480Z,69.70
2022-11-26T22:43:43.081Z,67.27
2022-11-26T22:46:13.765Z,73.50
2022-11-26T22:48:42.374Z,71.47
2022-11-26T22:51:10.626Z,66.87
2022-11-26T22:53:38.668Z,69.90
2022-11-26T22:56:07.359Z,74.90
2022-11-26T22:58:36.980Z,69.00
2022-11-26T23:01:07.326Z,86.87
2022-11-26T23:03:38.318Z,70.67
2022-11-26T23:06:08.427Z,68.47
2022-11-26T23:08:36.855Z,98.93
2022-11-26T23:11:07.986Z,73.57
2022-11-26T23:13:37.535Z,73.10
2022-11-26T23:16:08.619Z,76.20
2022-11-26T23:18:37.479Z,77.20
2022-11-26T23:21:07.691Z,76.50
2022-11-26T23:23:36.850Z,72.13
2022-11-26T23:26:05.709Z,74.63
2022-11-26T23:28:34.714Z,73.17
2022-11-26T23:31:05.845Z,82.77
2022-11-26T23:33:35.318Z,82.87
2022-11-26T23:36:03.550Z,74.57
2022-11-26T23:38:33.311Z,73.40
2022-11-26T23:41:03.551Z,75.33
2022-11-26T23:43:32.750Z,69.83
2022-11-26T23:46:03.449Z,70.53
2022-11-26T23:48:31.853Z,68.33
2022-11-26T23:51:00.153Z,66.33
2022-11-26T23:53:28.450Z,69.37
2022-11-26T23:56:02.621Z,64.07
2022-11-26T23:58:30.726Z,69.57
